sensor_id;sensor_type;location;lat;lon;timestamp;P1;durP1;ratioP1;P2;durP2;ratioP2
44120;SDS011;29783;52.504;13.478;2023-05-07T00:01:42;18.85;;;9.80;;
44120;SDS011;29783;52.504;13.478;2023-05-07T00:04:09;15.40;;;9.88;;
44120;SDS011;29783;52.504;13.478;2023-05-07T00:06:35;13.73;;;9.85;;
44120;SDS011;29783;52.504;13.478;2023-05-07T00:09:01;13.25;;;9.40;;
44120;SDS011;29783;52.504;13.478;2023-05-07T00:11:29;10.27;;;8.35;;
44120;SDS011;29783;52.504;13.478;2023-05-07T00:13:56;13.48;;;8.95;;
44120;SDS011;29783;52.504;13.478;2023-05-07T00:16:23;11.18;;;8.50;;
44120;SDS011;29783;52.504;13.478;2023-05-07T00:18:48;13.75;;;8.98;;
44120;SDS011;29783;52.504;13.478;2023-05-07T00:21:14;10.90;;;8.77;;
44120;SDS011;29783;52.504;13.478;2023-05-07T00:23:40;12.93;;;9.13;;
44120;SDS011;29783;52.504;13.478;2023-05-07T00:26:05;10.13;;;7.95;;
44120;SDS011;29783;52.504;13.478;2023-05-07T00:28:31;10.63;;;8.23;;
44120;SDS011;29783;52.504;13.478;2023-05-07T00:30:57;12.70;;;8.40;;
44120;SDS011;29783;52.504;13.478;2023-05-07T00:33:22;9.55;;;8.23;;
44120;SDS011;29783;52.504;13.478;2023-05-07T00:35:48;12.15;;;9.20;;
44120;SDS011;29783;52.504;13.478;2023-05-07T00:38:14;10.38;;;8.10;;
44120;SDS011;29783;52.504;13.478;2023-05-07T00:40:40;14.63;;;8.35;;
44120;SDS011;29783;52.504;13.478;2023-05-07T00:43:06;10.95;;;8.60;;
44120;SDS011;29783;52.504;13.478;2023-05-07T00:45:33;13.63;;;9.18;;
44120;SDS011;29783;52.504;13.478;2023-05-07T00:48:00;13.27;;;9.07;;
44120;SDS011;29783;52.504;13.478;2023-05-07T00:50:30;11.80;;;8.55;;
44120;SDS011;29783;52.504;13.478;2023-05-07T00:52:57;14.68;;;8.73;;
44120;SDS011;29783;52.504;13.478;2023-05-07T00:55:25;17.33;;;8.80;;
44120;SDS011;29783;52.504;13.478;2023-05-07T00:57:51;14.23;;;9.60;;
44120;SDS011;29783;52.504;13.478;2023-05-07T01:00:18;13.38;;;8.88;;
44120;SDS011;29783;52.504;13.478;2023-05-07T01:02:44;15.90;;;10.85;;
44120;SDS011;29783;52.504;13.478;2023-05-07T01:05:12;13.32;;;8.68;;
44120;SDS011;29783;52.504;13.478;2023-05-07T01:07:40;16.48;;;8.77;;
44120;SDS011;29783;52.504;13.478;2023-05-07T01:10:07;10.30;;;8.70;;
44120;SDS011;29783;52.504;13.478;2023-05-07T01:12:34;19.38;;;9.35;;
44120;SDS011;29783;52.504;13.478;2023-05-07T01:15:02;14.40;;;8.93;;
44120;SDS011;29783;52.504;13.478;2023-05-07T01:17:34;12.35;;;8.30;;
44120;SDS011;29783;52.504;13.478;2023-05-07T01:20:01;11.38;;;8.23;;
44120;SDS011;29783;52.504;13.478;2023-05-07T01:22:36;12.63;;;8.10;;
44120;SDS011;29783;52.504;13.478;2023-05-07T01:25:04;11.45;;;8.40;;
44120;SDS011;29783;52.504;13.478;2023-05-07T01:27:30;12.27;;;7.97;;
44120;SDS011;29783;52.504;13.478;2023-05-07T01:29:56;11.77;;;7.93;;
44120;SDS011;29783;52.504;13.478;2023-05-07T01:32:29;10.75;;;8.20;;
44120;SDS011;29783;52.504;13.478;2023-05-07T01:35:00;13.15;;;8.00;;
44120;SDS011;29783;52.504;13.478;2023-05-07T01:37:26;11.02;;;7.75;;
44120;SDS011;29783;52.504;13.478;2023-05-07T01:39:53;11.60;;;7.82;;
44120;SDS011;29783;52.504;13.478;2023-05-07T01:42:20;13.15;;;7.88;;
44120;SDS011;29783;52.504;13.478;2023-05-07T01:44:47;10.52;;;7.60;;
44120;SDS011;29783;52.504;13.478;2023-05-07T01:47:13;11.73;;;7.22;;
44120;SDS011;29783;52.504;13.478;2023-05-07T01:49:39;14.48;;;8.07;;
44120;SDS011;29783;52.504;13.478;2023-05-07T01:52:06;9.85;;;7.97;;
44120;SDS011;29783;52.504;13.478;2023-05-07T01:54:32;12.07;;;7.95;;
44120;SDS011;29783;52.504;13.478;2023-05-07T01:56:58;11.75;;;8.20;;
44120;SDS011;29783;52.504;13.478;2023-05-07T01:59:25;11.60;;;8.02;;
44120;SDS011;29783;52.504;13.478;2023-05-07T02:01:52;10.20;;;8.02;;
44120;SDS011;29783;52.504;13.478;2023-05-07T02:04:18;15.32;;;8.38;;
44120;SDS011;29783;52.504;13.478;2023-05-07T02:06:44;10.48;;;8.15;;
44120;SDS011;29783;52.504;13.478;2023-05-07T02:09:09;10.80;;;8.45;;
44120;SDS011;29783;52.504;13.478;2023-05-07T02:11:35;13.80;;;8.23;;
44120;SDS011;29783;52.504;13.478;2023-05-07T02:14:01;16.80;;;8.50;;
44120;SDS011;29783;52.504;13.478;2023-05-07T02:16:27;19.90;;;8.48;;
44120;SDS011;29783;52.504;13.478;2023-05-07T02:18:52;16.35;;;8.95;;
44120;SDS011;29783;52.504;13.478;2023-05-07T02:21:18;15.38;;;7.57;;
44120;SDS011;29783;52.504;13.478;2023-05-07T02:23:43;12.48;;;8.10;;
44120;SDS011;29783;52.504;13.478;2023-05-07T02:26:10;9.95;;;8.27;;
44120;SDS011;29783;52.504;13.478;2023-05-07T02:28:36;12.38;;;8.13;;
44120;SDS011;29783;52.504;13.478;2023-05-07T02:31:04;11.15;;;8.43;;
44120;SDS011;29783;52.504;13.478;2023-05-07T02:33:31;10.93;;;8.50;;
44120;SDS011;29783;52.504;13.478;2023-05-07T02:35:57;11.80;;;8.40;;
44120;SDS011;29783;52.504;13.478;2023-05-07T02:38:30;15.10;;;7.78;;
44120;SDS011;29783;52.504;13.478;2023-05-07T02:40:55;13.13;;;7.63;;
44120;SDS011;29783;52.504;13.478;2023-05-07T02:43:21;9.10;;;7.97;;
44120;SDS011;29783;52.504;13.478;2023-05-07T02:45:47;15.02;;;7.75;;
44120;SDS011;29783;52.504;13.478;2023-05-07T02:48:12;13.98;;;7.93;;
44120;SDS011;29783;52.504;13.478;2023-05-07T02:50:38;11.82;;;7.55;;
44120;SDS011;29783;52.504;13.478;2023-05-07T02:53:03;12.43;;;8.05;;
44120;SDS011;29783;52.504;13.478;2023-05-07T02:55:29;11.18;;;7.70;;
44120;SDS011;29783;52.504;13.478;2023-05-07T02:57:55;12.27;;;8.05;;
44120;SDS011;29783;52.504;13.478;2023-05-07T03:00:22;9.90;;;7.47;;
44120;SDS011;29783;52.504;13.478;2023-05-07T03:02:47;13.88;;;7.07;;
44120;SDS011;29783;52.504;13.478;2023-05-07T03:05:13;10.23;;;7.07;;
44120;SDS011;29783;52.504;13.478;2023-05-07T03:07:39;9.93;;;7.47;;
44120;SDS011;29783;52.504;13.478;2023-05-07T03:10:09;7.60;;;6.65;;
44120;SDS011;29783;52.504;13.478;2023-05-07T03:12:34;10.82;;;7.72;;
44120;SDS011;29783;52.504;13.478;2023-05-07T03:15:00;9.73;;;7.70;;
44120;SDS011;29783;52.504;13.478;2023-05-07T03:17:26;10.18;;;6.65;;
44120;SDS011;29783;52.504;13.478;2023-05-07T03:19:52;9.38;;;7.40;;
44120;SDS011;29783;52.504;13.478;2023-05-07T03:22:19;10.63;;;7.55;;
44120;SDS011;29783;52.504;13.478;2023-05-07T03:24:45;9.27;;;7.03;;
44120;SDS011;29783;52.504;13.478;2023-05-07T03:27:11;9.95;;;7.53;;
44120;SDS011;29783;52.504;13.478;2023-05-07T03:29:36;9.52;;;7.75;;
44120;SDS011;29783;52.504;13.478;2023-05-07T03:32:02;12.05;;;7.30;;
44120;SDS011;29783;52.504;13.478;2023-05-07T03:34:28;9.10;;;7.82;;
44120;SDS011;29783;52.504;13.478;2023-05-07T03:36:54;10.38;;;8.00;;
44120;SDS011;29783;52.504;13.478;2023-05-07T03:39:19;13.73;;;8.73;;
44120;SDS011;29783;52.504;13.478;2023-05-07T03:41:45;13.50;;;8.43;;
44120;SDS011;29783;52.504;13.478;2023-05-07T03:44:10;11.93;;;8.32;;
44120;SDS011;29783;52.504;13.478;2023-05-07T03:52:01;12.38;;;7.88;;
44120;SDS011;29783;52.504;13.478;2023-05-07T03:54:27;11.60;;;7.68;;
44120;SDS011;29783;52.504;13.478;2023-05-07T03:56:53;10.73;;;7.30;;
44120;SDS011;29783;52.504;13.478;2023-05-07T03:59:18;12.18;;;7.22;;
44120;SDS011;29783;52.504;13.478;2023-05-07T04:01:44;9.00;;;7.03;;
44120;SDS011;29783;52.504;13.478;2023-05-07T04:04:10;10.80;;;6.88;;
44120;SDS011;29783;52.504;13.478;2023-05-07T04:06:36;11.27;;;6.95;;
44120;SDS011;29783;52.504;13.478;2023-05-07T04:09:02;12.15;;;6.80;;
44120;SDS011;29783;52.504;13.478;2023-05-07T04:11:31;11.65;;;7.18;;
44120;SDS011;29783;52.504;13.478;2023-05-07T04:13:56;11.43;;;7.38;;
44120;SDS011;29783;52.504;13.478;2023-05-07T04:16:22;12.48;;;6.80;;
44120;SDS011;29783;52.504;13.478;2023-05-07T04:18:48;8.23;;;7.07;;
44120;SDS011;29783;52.504;13.478;2023-05-07T04:21:17;11.10;;;6.97;;
44120;SDS011;29783;52.504;13.478;2023-05-07T04:23:45;8.20;;;6.72;;
44120;SDS011;29783;52.504;13.478;2023-05-07T04:26:12;11.88;;;6.25;;
44120;SDS011;29783;52.504;13.478;2023-05-07T04:28:42;11.48;;;6.97;;
44120;SDS011;29783;52.504;13.478;2023-05-07T04:31:09;9.23;;;6.30;;
44120;SDS011;29783;52.504;13.478;2023-05-07T04:33:36;9.57;;;6.30;;
44120;SDS011;29783;52.504;13.478;2023-05-07T04:36:02;8.13;;;6.43;;
44120;SDS011;29783;52.504;13.478;2023-05-07T04:38:31;9.18;;;6.22;;
44120;SDS011;29783;52.504;13.478;2023-05-07T04:40:58;12.80;;;6.32;;
44120;SDS011;29783;52.504;13.478;2023-05-07T04:43:30;9.68;;;6.80;;
44120;SDS011;29783;52.504;13.478;2023-05-07T04:45:56;9.73;;;5.78;;
44120;SDS011;29783;52.504;13.478;2023-05-07T04:48:22;9.23;;;5.60;;
44120;SDS011;29783;52.504;13.478;2023-05-07T04:50:48;9.93;;;5.55;;
44120;SDS011;29783;52.504;13.478;2023-05-07T04:53:16;6.13;;;5.18;;
44120;SDS011;29783;52.504;13.478;2023-05-07T04:55:42;11.65;;;5.10;;
44120;SDS011;29783;52.504;13.478;2023-05-07T04:58:10;7.43;;;5.25;;
44120;SDS011;29783;52.504;13.478;2023-05-07T05:00:37;7.70;;;5.28;;
44120;SDS011;29783;52.504;13.478;2023-05-07T05:03:04;7.60;;;4.80;;
44120;SDS011;29783;52.504;13.478;2023-05-07T05:05:30;9.73;;;4.85;;
44120;SDS011;29783;52.504;13.478;2023-05-07T05:07:56;6.57;;;4.93;;
44120;SDS011;29783;52.504;13.478;2023-05-07T05:10:22;6.07;;;4.95;;
44120;SDS011;29783;52.504;13.478;2023-05-07T05:12:47;5.32;;;4.63;;
44120;SDS011;29783;52.504;13.478;2023-05-07T05:15:13;7.53;;;4.60;;
44120;SDS011;29783;52.504;13.478;2023-05-07T05:17:40;6.50;;;4.50;;
44120;SDS011;29783;52.504;13.478;2023-05-07T05:20:06;6.93;;;4.93;;
44120;SDS011;29783;52.504;13.478;2023-05-07T05:22:32;6.20;;;5.03;;
44120;SDS011;29783;52.504;13.478;2023-05-07T05:24:58;9.18;;;5.00;;
44120;SDS011;29783;52.504;13.478;2023-05-07T05:27:23;5.93;;;4.90;;
44120;SDS011;29783;52.504;13.478;2023-05-07T05:29:49;8.13;;;5.20;;
44120;SDS011;29783;52.504;13.478;2023-05-07T05:32:15;6.93;;;5.43;;
44120;SDS011;29783;52.504;13.478;2023-05-07T05:34:40;7.30;;;5.50;;
44120;SDS011;29783;52.504;13.478;2023-05-07T05:37:06;7.93;;;5.70;;
44120;SDS011;29783;52.504;13.478;2023-05-07T05:39:32;6.50;;;4.95;;
44120;SDS011;29783;52.504;13.478;2023-05-07T05:41:57;7.68;;;5.20;;
44120;SDS011;29783;52.504;13.478;2023-05-07T05:50:20;6.93;;;4.90;;
44120;SDS011;29783;52.504;13.478;2023-05-07T05:52:46;8.90;;;5.32;;
44120;SDS011;29783;52.504;13.478;2023-05-07T05:55:12;8.02;;;5.22;;
44120;SDS011;29783;52.504;13.478;2023-05-07T05:57:38;7.50;;;5.40;;
44120;SDS011;29783;52.504;13.478;2023-05-07T06:00:03;9.10;;;6.18;;
44120;SDS011;29783;52.504;13.478;2023-05-07T06:02:30;7.93;;;5.45;;
44120;SDS011;29783;52.504;13.478;2023-05-07T06:04:55;6.47;;;5.18;;
44120;SDS011;29783;52.504;13.478;2023-05-07T06:07:21;9.02;;;4.97;;
44120;SDS011;29783;52.504;13.478;2023-05-07T06:09:46;9.60;;;5.63;;
44120;SDS011;29783;52.504;13.478;2023-05-07T06:12:12;7.45;;;5.60;;
44120;SDS011;29783;52.504;13.478;2023-05-07T06:14:37;7.15;;;5.18;;
44120;SDS011;29783;52.504;13.478;2023-05-07T06:17:03;8.43;;;5.63;;
44120;SDS011;29783;52.504;13.478;2023-05-07T06:19:28;7.72;;;4.95;;
44120;SDS011;29783;52.504;13.478;2023-05-07T06:21:54;12.52;;;4.97;;
44120;SDS011;29783;52.504;13.478;2023-05-07T06:24:21;8.68;;;5.40;;
44120;SDS011;29783;52.504;13.478;2023-05-07T06:26:47;9.70;;;4.80;;
44120;SDS011;29783;52.504;13.478;2023-05-07T06:29:13;7.95;;;4.70;;
44120;SDS011;29783;52.504;13.478;2023-05-07T06:31:38;8.73;;;4.65;;
44120;SDS011;29783;52.504;13.478;2023-05-07T06:34:04;6.72;;;4.72;;
44120;SDS011;29783;52.504;13.478;2023-05-07T06:36:30;7.57;;;5.20;;
44120;SDS011;29783;52.504;13.478;2023-05-07T06:38:56;7.78;;;4.72;;
44120;SDS011;29783;52.504;13.478;2023-05-07T06:41:21;7.78;;;4.43;;
44120;SDS011;29783;52.504;13.478;2023-05-07T06:43:47;7.65;;;4.72;;
44120;SDS011;29783;52.504;13.478;2023-05-07T06:46:13;8.52;;;4.75;;
44120;SDS011;29783;52.504;13.478;2023-05-07T06:48:38;6.05;;;4.70;;
44120;SDS011;29783;52.504;13.478;2023-05-07T06:51:04;5.38;;;4.07;;
44120;SDS011;29783;52.504;13.478;2023-05-07T06:53:29;9.52;;;4.38;;
44120;SDS011;29783;52.504;13.478;2023-05-07T06:55:55;7.30;;;4.30;;
44120;SDS011;29783;52.504;13.478;2023-05-07T06:58:21;6.65;;;4.28;;
44120;SDS011;29783;52.504;13.478;2023-05-07T07:00:47;7.60;;;3.78;;
44120;SDS011;29783;52.504;13.478;2023-05-07T07:03:13;4.75;;;3.80;;
44120;SDS011;29783;52.504;13.478;2023-05-07T07:05:40;6.32;;;4.15;;
44120;SDS011;29783;52.504;13.478;2023-05-07T07:08:06;6.30;;;4.32;;
44120;SDS011;29783;52.504;13.478;2023-05-07T07:10:32;4.75;;;3.67;;
44120;SDS011;29783;52.504;13.478;2023-05-07T07:12:57;4.90;;;3.63;;
44120;SDS011;29783;52.504;13.478;2023-05-07T07:15:23;5.30;;;4.05;;
44120;SDS011;29783;52.504;13.478;2023-05-07T07:17:50;9.85;;;4.32;;
44120;SDS011;29783;52.504;13.478;2023-05-07T07:20:16;5.57;;;3.67;;
44120;SDS011;29783;52.504;13.478;2023-05-07T07:22:41;9.48;;;4.22;;
44120;SDS011;29783;52.504;13.478;2023-05-07T07:25:07;6.68;;;3.65;;
44120;SDS011;29783;52.504;13.478;2023-05-07T07:27:33;5.22;;;3.40;;
44120;SDS011;29783;52.504;13.478;2023-05-07T07:29:59;6.18;;;3.80;;
44120;SDS011;29783;52.504;13.478;2023-05-07T07:32:25;5.28;;;3.67;;
44120;SDS011;29783;52.504;13.478;2023-05-07T07:34:51;3.92;;;3.28;;
44120;SDS011;29783;52.504;13.478;2023-05-07T07:37:16;8.73;;;3.33;;
44120;SDS011;29783;52.504;13.478;2023-05-07T07:39:44;4.63;;;3.20;;
44120;SDS011;29783;52.504;13.478;2023-05-07T07:42:10;6.30;;;3.10;;
44120;SDS011;29783;52.504;13.478;2023-05-07T07:44:35;8.73;;;3.30;;
44120;SDS011;29783;52.504;13.478;2023-05-07T07:47:01;3.00;;;2.70;;
44120;SDS011;29783;52.504;13.478;2023-05-07T07:49:26;5.32;;;3.28;;
44120;SDS011;29783;52.504;13.478;2023-05-07T07:51:52;5.60;;;2.70;;
44120;SDS011;29783;52.504;13.478;2023-05-07T07:54:18;4.47;;;2.83;;
44120;SDS011;29783;52.504;13.478;2023-05-07T07:56:43;8.82;;;2.67;;
44120;SDS011;29783;52.504;13.478;2023-05-07T07:59:09;3.95;;;2.70;;
44120;SDS011;29783;52.504;13.478;2023-05-07T08:01:35;3.25;;;2.50;;
44120;SDS011;29783;52.504;13.478;2023-05-07T08:04:00;8.18;;;2.78;;
44120;SDS011;29783;52.504;13.478;2023-05-07T08:06:28;2.83;;;2.20;;
44120;SDS011;29783;52.504;13.478;2023-05-07T08:08:54;3.35;;;2.35;;
44120;SDS011;29783;52.504;13.478;2023-05-07T08:11:20;3.30;;;2.30;;
44120;SDS011;29783;52.504;13.478;2023-05-07T08:13:46;6.03;;;2.38;;
44120;SDS011;29783;52.504;13.478;2023-05-07T08:16:12;7.20;;;2.30;;
44120;SDS011;29783;52.504;13.478;2023-05-07T08:18:38;3.03;;;2.13;;
44120;SDS011;29783;52.504;13.478;2023-05-07T08:21:03;2.47;;;2.25;;
44120;SDS011;29783;52.504;13.478;2023-05-07T08:23:29;11.45;;;2.70;;
44120;SDS011;29783;52.504;13.478;2023-05-07T08:25:55;3.20;;;2.50;;
44120;SDS011;29783;52.504;13.478;2023-05-07T08:28:21;4.70;;;2.20;;
44120;SDS011;29783;52.504;13.478;2023-05-07T08:30:46;3.35;;;2.35;;
44120;SDS011;29783;52.504;13.478;2023-05-07T08:33:12;2.80;;;2.10;;
44120;SDS011;29783;52.504;13.478;2023-05-07T08:35:38;3.78;;;2.22;;
44120;SDS011;29783;52.504;13.478;2023-05-07T08:38:04;4.10;;;2.33;;
44120;SDS011;29783;52.504;13.478;2023-05-07T08:40:29;4.65;;;2.30;;
44120;SDS011;29783;52.504;13.478;2023-05-07T08:43:05;5.90;;;2.30;;
44120;SDS011;29783;52.504;13.478;2023-05-07T08:45:31;10.00;;;1.90;;
44120;SDS011;29783;52.504;13.478;2023-05-07T08:47:58;4.30;;;2.15;;
44120;SDS011;29783;52.504;13.478;2023-05-07T08:50:26;2.35;;;1.98;;
44120;SDS011;29783;52.504;13.478;2023-05-07T08:52:52;8.68;;;2.90;;
44120;SDS011;29783;52.504;13.478;2023-05-07T08:55:18;5.20;;;2.50;;
44120;SDS011;29783;52.504;13.478;2023-05-07T08:57:44;3.15;;;2.40;;
44120;SDS011;29783;52.504;13.478;2023-05-07T09:00:10;3.40;;;2.40;;
44120;SDS011;29783;52.504;13.478;2023-05-07T09:02:36;3.83;;;2.30;;
44120;SDS011;29783;52.504;13.478;2023-05-07T09:05:02;2.80;;;1.85;;
44120;SDS011;29783;52.504;13.478;2023-05-07T09:07:28;2.92;;;2.22;;
44120;SDS011;29783;52.504;13.478;2023-05-07T09:09:55;3.97;;;2.45;;
44120;SDS011;29783;52.504;13.478;2023-05-07T09:12:22;3.78;;;2.30;;
44120;SDS011;29783;52.504;13.478;2023-05-07T09:14:47;2.80;;;2.17;;
44120;SDS011;29783;52.504;13.478;2023-05-07T09:17:15;3.45;;;2.08;;
44120;SDS011;29783;52.504;13.478;2023-05-07T09:19:43;4.85;;;2.35;;
44120;SDS011;29783;52.504;13.478;2023-05-07T09:22:12;3.50;;;1.92;;
44120;SDS011;29783;52.504;13.478;2023-05-07T09:24:37;4.22;;;2.38;;
44120;SDS011;29783;52.504;13.478;2023-05-07T09:27:04;3.22;;;2.42;;
44120;SDS011;29783;52.504;13.478;2023-05-07T09:29:30;3.70;;;2.47;;
44120;SDS011;29783;52.504;13.478;2023-05-07T09:32:01;4.30;;;1.90;;
44120;SDS011;29783;52.504;13.478;2023-05-07T09:34:28;3.97;;;2.47;;
44120;SDS011;29783;52.504;13.478;2023-05-07T09:36:58;4.53;;;2.05;;
44120;SDS011;29783;52.504;13.478;2023-05-07T09:39:44;3.35;;;2.30;;
44120;SDS011;29783;52.504;13.478;2023-05-07T09:42:11;8.85;;;1.92;;
44120;SDS011;29783;52.504;13.478;2023-05-07T09:44:38;2.13;;;1.80;;
44120;SDS011;29783;52.504;13.478;2023-05-07T09:47:07;3.85;;;1.98;;
44120;SDS011;29783;52.504;13.478;2023-05-07T09:49:37;2.85;;;1.70;;
44120;SDS011;29783;52.504;13.478;2023-05-07T09:52:05;2.42;;;1.63;;
44120;SDS011;29783;52.504;13.478;2023-05-07T09:54:33;2.60;;;1.50;;
44120;SDS011;29783;52.504;13.478;2023-05-07T09:57:02;1.38;;;1.05;;
44120;SDS011;29783;52.504;13.478;2023-05-07T09:59:29;2.42;;;1.52;;
44120;SDS011;29783;52.504;13.478;2023-05-07T10:01:59;3.42;;;1.30;;
44120;SDS011;29783;52.504;13.478;2023-05-07T10:04:26;4.97;;;1.55;;
44120;SDS011;29783;52.504;13.478;2023-05-07T10:06:52;2.10;;;1.40;;
44120;SDS011;29783;52.504;13.478;2023-05-07T10:09:20;2.13;;;1.23;;
44120;SDS011;29783;52.504;13.478;2023-05-07T10:11:46;1.85;;;1.10;;
44120;SDS011;29783;52.504;13.478;2023-05-07T10:14:14;2.20;;;1.10;;
44120;SDS011;29783;52.504;13.478;2023-05-07T10:16:40;1.90;;;1.10;;
44120;SDS011;29783;52.504;13.478;2023-05-07T10:19:07;2.83;;;1.20;;
44120;SDS011;29783;52.504;13.478;2023-05-07T10:21:37;2.03;;;1.08;;
44120;SDS011;29783;52.504;13.478;2023-05-07T10:24:11;1.65;;;0.98;;
44120;SDS011;29783;52.504;13.478;2023-05-07T10:26:45;2.30;;;1.25;;
44120;SDS011;29783;52.504;13.478;2023-05-07T10:29:16;2.10;;;1.10;;
44120;SDS011;29783;52.504;13.478;2023-05-07T10:31:55;1.52;;;1.20;;
44120;SDS011;29783;52.504;13.478;2023-05-07T10:34:28;4.85;;;1.30;;
44120;SDS011;29783;52.504;13.478;2023-05-07T10:37:01;2.35;;;1.08;;
44120;SDS011;29783;52.504;13.478;2023-05-07T10:39:28;2.60;;;1.38;;
44120;SDS011;29783;52.504;13.478;2023-05-07T10:41:54;2.00;;;1.20;;
44120;SDS011;29783;52.504;13.478;2023-05-07T10:44:28;2.15;;;1.30;;
44120;SDS011;29783;52.504;13.478;2023-05-07T10:47:07;1.88;;;1.15;;
44120;SDS011;29783;52.504;13.478;2023-05-07T10:52:12;1.88;;;1.23;;
44120;SDS011;29783;52.504;13.478;2023-05-07T10:54:39;1.98;;;1.10;;
44120;SDS011;29783;52.504;13.478;2023-05-07T11:00:47;2.00;;;1.20;;
44120;SDS011;29783;52.504;13.478;2023-05-07T11:05:25;3.70;;;1.05;;
44120;SDS011;29783;52.504;13.478;2023-05-07T11:07:56;4.80;;;1.00;;
44120;SDS011;29783;52.504;13.478;2023-05-07T11:10:22;2.47;;;0.90;;
44120;SDS011;29783;52.504;13.478;2023-05-07T11:12:52;1.65;;;1.02;;
44120;SDS011;29783;52.504;13.478;2023-05-07T11:15:35;2.15;;;1.27;;
44120;SDS011;29783;52.504;13.478;2023-05-07T11:18:05;1.73;;;1.10;;
44120;SDS011;29783;52.504;13.478;2023-05-07T11:26:00;2.25;;;1.02;;
44120;SDS011;29783;52.504;13.478;2023-05-07T11:28:28;7.05;;;1.25;;
44120;SDS011;29783;52.504;13.478;2023-05-07T11:31:01;2.65;;;1.30;;
44120;SDS011;29783;52.504;13.478;2023-05-07T11:33:28;4.97;;;1.73;;
44120;SDS011;29783;52.504;13.478;2023-05-07T11:35:55;5.97;;;1.23;;
44120;SDS011;29783;52.504;13.478;2023-05-07T11:38:22;4.75;;;1.15;;
44120;SDS011;29783;52.504;13.478;2023-05-07T11:43:17;3.70;;;1.20;;
44120;SDS011;29783;52.504;13.478;2023-05-07T11:45:44;3.83;;;1.35;;
44120;SDS011;29783;52.504;13.478;2023-05-07T11:48:11;2.65;;;1.25;;
44120;SDS011;29783;52.504;13.478;2023-05-07T11:50:49;5.47;;;1.25;;
44120;SDS011;29783;52.504;13.478;2023-05-07T11:53:24;3.78;;;1.40;;
44120;SDS011;29783;52.504;13.478;2023-05-07T11:55:57;2.60;;;1.55;;
44120;SDS011;29783;52.504;13.478;2023-05-07T11:58:23;4.22;;;1.40;;
44120;SDS011;29783;52.504;13.478;2023-05-07T12:00:53;1.67;;;0.98;;
44120;SDS011;29783;52.504;13.478;2023-05-07T12:03:22;2.13;;;1.42;;
44120;SDS011;29783;52.504;13.478;2023-05-07T12:05:48;2.50;;;1.35;;
44120;SDS011;29783;52.504;13.478;2023-05-07T12:08:17;2.17;;;1.35;;
44120;SDS011;29783;52.504;13.478;2023-05-07T12:10:44;6.15;;;1.02;;
44120;SDS011;29783;52.504;13.478;2023-05-07T12:13:14;2.72;;;1.33;;
44120;SDS011;29783;52.504;13.478;2023-05-07T12:15:41;2.42;;;1.23;;
44120;SDS011;29783;52.504;13.478;2023-05-07T12:18:07;2.13;;;1.00;;
44120;SDS011;29783;52.504;13.478;2023-05-07T12:20:35;6.78;;;1.48;;
44120;SDS011;29783;52.504;13.478;2023-05-07T12:23:02;4.82;;;1.45;;
44120;SDS011;29783;52.504;13.478;2023-05-07T12:25:35;2.45;;;1.50;;
44120;SDS011;29783;52.504;13.478;2023-05-07T12:28:02;2.17;;;1.02;;
44120;SDS011;29783;52.504;13.478;2023-05-07T12:30:30;2.55;;;0.88;;
44120;SDS011;29783;52.504;13.478;2023-05-07T12:32:59;1.10;;;0.95;;
44120;SDS011;29783;52.504;13.478;2023-05-07T12:35:28;4.00;;;1.10;;
44120;SDS011;29783;52.504;13.478;2023-05-07T12:37:55;4.05;;;0.98;;
44120;SDS011;29783;52.504;13.478;2023-05-07T12:40:21;2.60;;;0.88;;
44120;SDS011;29783;52.504;13.478;2023-05-07T12:42:47;2.58;;;1.08;;
44120;SDS011;29783;52.504;13.478;2023-05-07T12:45:20;2.90;;;1.00;;
44120;SDS011;29783;52.504;13.478;2023-05-07T12:47:46;1.25;;;0.90;;
44120;SDS011;29783;52.504;13.478;2023-05-07T12:50:12;3.80;;;0.82;;
44120;SDS011;29783;52.504;13.478;2023-05-07T12:52:39;2.45;;;0.93;;
44120;SDS011;29783;52.504;13.478;2023-05-07T12:55:05;1.90;;;0.70;;
44120;SDS011;29783;52.504;13.478;2023-05-07T12:57:39;2.58;;;1.00;;
44120;SDS011;29783;52.504;13.478;2023-05-07T13:00:05;6.65;;;0.98;;
44120;SDS011;29783;52.504;13.478;2023-05-07T13:02:32;4.18;;;0.82;;
44120;SDS011;29783;52.504;13.478;2023-05-07T13:04:59;2.70;;;0.70;;
44120;SDS011;29783;52.504;13.478;2023-05-07T13:07:25;0.90;;;0.70;;
44120;SDS011;29783;52.504;13.478;2023-05-07T13:09:52;1.35;;;0.75;;
44120;SDS011;29783;52.504;13.478;2023-05-07T13:12:17;2.08;;;0.90;;
44120;SDS011;29783;52.504;13.478;2023-05-07T13:14:43;1.17;;;0.80;;
44120;SDS011;29783;52.504;13.478;2023-05-07T13:17:08;2.00;;;0.80;;
44120;SDS011;29783;52.504;13.478;2023-05-07T13:19:34;3.22;;;1.30;;
44120;SDS011;29783;52.504;13.478;2023-05-07T13:22:02;1.45;;;0.80;;
44120;SDS011;29783;52.504;13.478;2023-05-07T13:24:28;3.25;;;1.20;;
44120;SDS011;29783;52.504;13.478;2023-05-07T13:26:53;2.45;;;1.05;;
44120;SDS011;29783;52.504;13.478;2023-05-07T13:29:19;4.57;;;1.13;;
44120;SDS011;29783;52.504;13.478;2023-05-07T13:31:50;2.38;;;1.10;;
44120;SDS011;29783;52.504;13.478;2023-05-07T13:34:16;1.38;;;0.93;;
44120;SDS011;29783;52.504;13.478;2023-05-07T13:36:41;2.60;;;0.93;;
44120;SDS011;29783;52.504;13.478;2023-05-07T13:39:08;4.63;;;0.75;;
44120;SDS011;29783;52.504;13.478;2023-05-07T13:41:35;2.22;;;1.08;;
44120;SDS011;29783;52.504;13.478;2023-05-07T13:44:02;1.45;;;0.98;;
44120;SDS011;29783;52.504;13.478;2023-05-07T13:46:28;1.58;;;0.80;;
44120;SDS011;29783;52.504;13.478;2023-05-07T13:48:56;1.58;;;1.10;;
44120;SDS011;29783;52.504;13.478;2023-05-07T13:51:21;3.97;;;0.95;;
44120;SDS011;29783;52.504;13.478;2023-05-07T13:53:47;2.05;;;0.90;;
44120;SDS011;29783;52.504;13.478;2023-05-07T13:56:13;2.97;;;1.10;;
44120;SDS011;29783;52.504;13.478;2023-05-07T13:58:40;5.50;;;1.13;;
44120;SDS011;29783;52.504;13.478;2023-05-07T14:01:06;2.03;;;1.23;;
44120;SDS011;29783;52.504;13.478;2023-05-07T14:03:31;1.80;;;1.10;;
44120;SDS011;29783;52.504;13.478;2023-05-07T14:06:02;3.00;;;1.27;;
44120;SDS011;29783;52.504;13.478;2023-05-07T14:08:30;5.40;;;1.33;;
44120;SDS011;29783;52.504;13.478;2023-05-07T14:10:55;2.60;;;1.00;;
44120;SDS011;29783;52.504;13.478;2023-05-07T14:13:21;3.00;;;1.20;;
44120;SDS011;29783;52.504;13.478;2023-05-07T14:15:46;3.25;;;1.10;;
44120;SDS011;29783;52.504;13.478;2023-05-07T14:18:14;4.15;;;1.50;;
44120;SDS011;29783;52.504;13.478;2023-05-07T14:20:40;4.25;;;1.10;;
44120;SDS011;29783;52.504;13.478;2023-05-07T14:23:05;1.33;;;0.95;;
44120;SDS011;29783;52.504;13.478;2023-05-07T14:25:31;1.20;;;0.80;;
44120;SDS011;29783;52.504;13.478;2023-05-07T14:27:57;2.20;;;0.98;;
44120;SDS011;29783;52.504;13.478;2023-05-07T14:30:22;1.80;;;1.05;;
44120;SDS011;29783;52.504;13.478;2023-05-07T14:32:49;2.20;;;1.00;;
44120;SDS011;29783;52.504;13.478;2023-05-07T14:35:15;2.35;;;0.80;;
44120;SDS011;29783;52.504;13.478;2023-05-07T14:37:41;4.35;;;0.90;;
44120;SDS011;29783;52.504;13.478;2023-05-07T14:40:07;5.38;;;1.10;;
44120;SDS011;29783;52.504;13.478;2023-05-07T14:42:34;1.73;;;0.98;;
44120;SDS011;29783;52.504;13.478;2023-05-07T15:08:03;2.85;;;0.82;;
44120;SDS011;29783;52.504;13.478;2023-05-07T15:10:28;2.78;;;1.02;;
44120;SDS011;29783;52.504;13.478;2023-05-07T15:12:54;6.35;;;1.80;;
44120;SDS011;29783;52.504;13.478;2023-05-07T15:15:20;7.82;;;1.23;;
44120;SDS011;29783;52.504;13.478;2023-05-07T15:17:45;1.55;;;0.70;;
44120;SDS011;29783;52.504;13.478;2023-05-07T15:20:11;3.22;;;0.98;;